Time;durP1;ratioP1;P1;durP2;ratioP2;P2;SDS_P1;SDS_P2;PMS_P1;PMS_P2;Temp;Humidity;BMP_temperature;BMP_pressure;BME280_temperature;BME280_humidity;BME280_pressure;Samples;Min_cycle;Max_cycle;Signal;HPM_P1;HPM_P2
2022/07/26 00:01:17;;;;;;;2.85;1.17;;;26.70;88.90;;;;;;7393394;19;20154;-81
2022/07/26 00:03:44;;;;;;;2.83;1.13;;;26.60;89.80;;;;;;7394142;19;20150;-83
2022/07/26 00:06:09;;;;;;;3.38;1.00;;;26.40;90.20;;;;;;7395423;19;20142;-79
2022/07/26 00:08:35;;;;;;;3.33;1.40;;;26.40;90.30;;;;;;7395343;19;20135;-82
2022/07/26 00:11:01;;;;;;;2.05;1.10;;;26.50;90.50;;;;;;7392423;19;20161;-81
2022/07/26 00:13:27;;;;;;;2.63;1.42;;;26.60;90.10;;;;;;7394889;19;20684;-81
2022/07/26 00:15:53;;;;;;;1.08;0.90;;;26.60;90.20;;;;;;7391265;19;20138;-80
2022/07/26 00:18:19;;;;;;;3.97;1.48;;;26.50;90.40;;;;;;7397399;19;20498;-82
2022/07/26 00:20:47;;;;;;;2.30;1.55;;;26.50;90.40;;;;;;7391763;19;20155;-81
2022/07/26 00:23:13;;;;;;;1.85;1.60;;;26.30;90.60;;;;;;7393074;19;20636;-80
2022/07/26 00:25:40;;;;;;;3.42;1.00;;;26.30;90.80;;;;;;7392418;19;20209;-80
2022/07/26 00:28:05;;;;;;;2.45;1.05;;;26.30;91.00;;;;;;7392110;19;20165;-81
2022/07/26 00:30:32;;;;;;;2.00;0.93;;;26.30;91.20;;;;;;7393703;19;20651;-81
2022/07/26 00:32:58;;;;;;;1.88;1.00;;;26.30;90.90;;;;;;7392466;19;20148;-81
2022/07/26 00:35:24;;;;;;;1.83;0.80;;;26.40;90.90;;;;;;7390744;19;20136;-81
2022/07/26 00:37:50;;;;;;;2.85;0.90;;;26.40;90.90;;;;;;7394753;19;20947;-82
2022/07/26 00:40:15;;;;;;;3.50;1.30;;;26.50;91.00;;;;;;7394192;19;20139;-83
2022/07/26 00:42:42;;;;;;;1.30;0.88;;;26.50;91.00;;;;;;7391101;19;20146;-84
2022/07/26 00:45:08;;;;;;;3.47;1.05;;;26.50;91.00;;;;;;7394082;19;20131;-82
2022/07/26 00:47:35;;;;;;;1.50;1.13;;;26.40;91.00;;;;;;7392711;19;20567;-81
2022/07/26 00:50:01;;;;;;;2.25;0.90;;;26.30;91.10;;;;;;7387839;19;20655;-81
2022/07/26 00:52:27;;;;;;;2.83;1.00;;;26.40;91.20;;;;;;7392717;19;20545;-81
2022/07/26 00:54:54;;;;;;;1.23;0.90;;;26.40;91.30;;;;;;7393608;19;20156;-81
2022/07/26 00:57:24;;;;;;;1.02;0.80;;;26.20;91.60;;;;;;7392186;19;20151;-81
2022/07/26 00:59:50;;;;;;;1.27;1.00;;;26.20;91.80;;;;;;7395646;19;20500;-82
2022/07/26 01:02:17;;;;;;;4.13;0.88;;;26.20;91.90;;;;;;7394858;19;20131;-79
2022/07/26 01:04:43;;;;;;;2.00;0.80;;;26.30;91.90;;;;;;7393438;19;20654;-79
2022/07/26 01:07:11;;;;;;;1.92;0.98;;;26.30;91.90;;;;;;7390890;19;20179;-80
2022/07/26 01:09:38;;;;;;;1.25;0.90;;;26.20;92.10;;;;;;7393743;19;20518;-79
2022/07/26 01:12:03;;;;;;;0.68;0.63;;;26.20;92.30;;;;;;7387134;19;20137;-80
2022/07/26 01:14:29;;;;;;;2.08;1.00;;;26.20;92.50;;;;;;7393661;19;20138;-79
2022/07/26 01:16:55;;;;;;;0.85;0.70;;;26.00;94.70;;;;;;7391991;19;20206;-80
2022/07/26 01:19:21;;;;;;;1.80;0.85;;;25.70;96.20;;;;;;7390275;19;20142;-79
2022/07/26 01:21:48;;;;;;;1.48;1.13;;;25.30;98.00;;;;;;7391000;19;20188;-79
2022/07/26 01:24:14;;;;;;;0.80;0.80;;;24.80;99.90;;;;;;7392419;19;20564;-79
2022/07/26 01:26:40;;;;;;;1.35;0.80;;;24.30;99.90;;;;;;7386126;19;20178;-79
2022/07/26 01:29:06;;;;;;;1.08;0.93;;;24.00;99.90;;;;;;7390144;19;20165;-80
2022/07/26 01:31:31;;;;;;;1.50;1.30;;;23.80;99.90;;;;;;7386314;19;20210;-80
2022/07/26 01:33:58;;;;;;;1.20;1.00;;;23.80;99.90;;;;;;7393806;19;20607;-80
2022/07/26 01:36:24;;;;;;;2.38;1.10;;;23.80;99.90;;;;;;7394364;19;20664;-79
2022/07/26 01:38:49;;;;;;;1.40;1.00;;;23.70;99.90;;;;;;7390535;19;20154;-80
2022/07/26 01:41:15;;;;;;;1.20;0.88;;;23.60;99.90;;;;;;7392053;19;20618;-79
2022/07/26 01:43:42;;;;;;;1.95;1.17;;;23.60;99.90;;;;;;7384742;19;20135;-79
2022/07/26 01:46:09;;;;;;;1.83;1.17;;;23.60;99.90;;;;;;7394129;19;20131;-80
2022/07/26 01:48:35;;;;;;;1.77;1.05;;;23.80;99.90;;;;;;7395190;19;20621;-79
2022/07/26 01:51:01;;;;;;;1.13;0.80;;;23.90;99.90;;;;;;7389694;19;20171;-79
2022/07/26 01:53:27;;;;;;;3.60;1.08;;;24.10;99.90;;;;;;7391997;19;20139;-80
2022/07/26 01:55:53;;;;;;;1.08;0.93;;;24.10;99.90;;;;;;7386582;19;20154;-80
2022/07/26 01:58:19;;;;;;;0.70;0.70;;;24.20;99.90;;;;;;7391501;19;20144;-80
2022/07/26 02:00:44;;;;;;;1.38;0.90;;;24.30;99.90;;;;;;7392274;19;20153;-79
2022/07/26 02:03:10;;;;;;;3.38;0.95;;;24.50;99.90;;;;;;7387343;19;20135;-80
2022/07/26 02:05:36;;;;;;;1.67;0.90;;;24.60;99.90;;;;;;7392337;19;20138;-78
2022/07/26 02:08:02;;;;;;;1.02;0.80;;;24.40;99.90;;;;;;7393476;19;20144;-79
2022/07/26 02:13:14;;;;;;;2.58;1.02;;;23.90;99.90;;;;;;7387003;19;20154;-79
2022/07/26 02:15:40;;;;;;;1.40;0.98;;;24.00;99.90;;;;;;7388044;19;20142;-80
2022/07/26 02:18:06;;;;;;;1.10;0.80;;;24.20;99.90;;;;;;7392518;19;20502;-79
2022/07/26 02:20:32;;;;;;;1.98;0.90;;;24.30;99.90;;;;;;7389848;19;20234;-79
2022/07/26 02:23:01;;;;;;;0.80;0.80;;;24.50;99.90;;;;;;7386477;19;20134;-79
2022/07/26 02:25:27;;;;;;;1.20;0.85;;;24.60;99.90;;;;;;7386678;19;20139;-79
2022/07/26 02:27:53;;;;;;;2.67;0.90;;;24.70;99.90;;;;;;7386419;19;20479;-79
2022/07/26 02:30:19;;;;;;;0.88;0.75;;;24.70;99.90;;;;;;7387320;19;20138;-80
2022/07/26 02:32:46;;;;;;;1.48;1.00;;;24.70;99.90;;;;;;7390982;19;20147;-82
2022/07/26 02:35:12;;;;;;;2.10;0.90;;;24.70;99.90;;;;;;7392284;19;20217;-80
2022/07/26 02:37:39;;;;;;;1.48;0.90;;;24.70;99.90;;;;;;7385710;19;20134;-80
2022/07/26 02:40:06;;;;;;;2.80;0.80;;;24.60;99.90;;;;;;7389942;19;20154;-80
2022/07/26 02:42:32;;;;;;;1.08;0.98;;;24.70;99.90;;;;;;7384978;19;20162;-81
2022/07/26 02:44:58;;;;;;;1.83;0.80;;;24.70;99.90;;;;;;7392574;19;20230;-81
2022/07/26 02:47:24;;;;;;;1.50;0.93;;;24.80;99.90;;;;;;7385926;19;20777;-81
2022/07/26 02:49:50;;;;;;;1.80;0.90;;;24.80;99.90;;;;;;7386574;19;20475;-79
2022/07/26 02:52:16;;;;;;;1.95;1.00;;;24.90;99.90;;;;;;7389794;19;20577;-79
2022/07/26 02:54:42;;;;;;;1.50;1.08;;;24.80;99.90;;;;;;7387771;19;20623;-79
2022/07/26 02:57:08;;;;;;;1.38;0.93;;;24.90;99.90;;;;;;7390372;19;20138;-78
2022/07/26 02:59:34;;;;;;;1.35;0.80;;;24.90;99.90;;;;;;7387160;19;20156;-79
2022/07/26 03:01:59;;;;;;;0.70;0.70;;;25.00;99.90;;;;;;7387947;19;20154;-80
2022/07/26 03:04:25;;;;;;;2.05;0.73;;;25.10;99.90;;;;;;7385703;19;20201;-80
2022/07/26 03:06:51;;;;;;;1.50;0.70;;;25.00;99.90;;;;;;7388188;19;20158;-81
2022/07/26 03:09:17;;;;;;;0.82;0.60;;;25.00;99.90;;;;;;7389471;19;20130;-80
2022/07/26 03:11:42;;;;;;;0.75;0.75;;;24.90;99.90;;;;;;7383183;19;22142;-81
2022/07/26 03:14:08;;;;;;;1.77;0.82;;;24.80;99.90;;;;;;7388007;19;20149;-80
2022/07/26 03:16:34;;;;;;;0.60;0.60;;;24.80;99.90;;;;;;7388763;19;20142;-80
2022/07/26 03:19:00;;;;;;;1.15;0.98;;;24.90;99.90;;;;;;7388988;19;20126;-80
2022/07/26 03:21:27;;;;;;;1.00;0.60;;;24.80;99.90;;;;;;7386149;19;20150;-80
2022/07/26 03:23:53;;;;;;;1.17;0.90;;;24.70;99.90;;;;;;7386058;19;20158;-79
2022/07/26 03:26:19;;;;;;;0.75;0.68;;;24.80;99.90;;;;;;7386753;19;20576;-80
2022/07/26 03:28:45;;;;;;;1.42;0.60;;;24.80;99.90;;;;;;7385853;19;20185;-80
2022/07/26 03:31:11;;;;;;;2.90;0.80;;;24.60;99.90;;;;;;7385771;19;20160;-81
2022/07/26 03:33:38;;;;;;;1.20;0.73;;;24.50;99.90;;;;;;7384999;19;20181;-80
2022/07/26 03:36:06;;;;;;;1.60;0.80;;;24.50;99.90;;;;;;7397292;19;20159;-80
2022/07/26 03:38:32;;;;;;;0.80;0.73;;;24.70;99.90;;;;;;7404252;19;20150;-80
2022/07/26 03:40:58;;;;;;;1.33;0.90;;;24.90;99.90;;;;;;7398527;19;20595;-79
2022/07/26 03:43:23;;;;;;;1.30;0.80;;;24.90;99.90;;;;;;7404783;19;20166;-80
2022/07/26 03:45:50;;;;;;;1.30;0.80;;;24.90;99.90;;;;;;7397009;19;20673;-80
2022/07/26 03:48:16;;;;;;;1.10;0.70;;;24.90;99.90;;;;;;7400072;19;20660;-80
2022/07/26 03:50:41;;;;;;;2.13;0.80;;;24.90;99.90;;;;;;7398716;19;20138;-80
2022/07/26 03:53:07;;;;;;;1.90;0.95;;;24.80;99.90;;;;;;7404366;19;20532;-80
2022/07/26 03:58:18;;;;;;;0.80;0.80;;;24.50;99.90;;;;;;7405650;19;20779;-80
2022/07/26 04:00:44;;;;;;;2.03;0.88;;;24.50;99.90;;;;;;7401795;19;20146;-80
2022/07/26 04:03:10;;;;;;;1.67;0.70;;;24.50;99.90;;;;;;7403376;19;20656;-80
2022/07/26 04:05:36;;;;;;;1.60;1.00;;;24.50;99.90;;;;;;7399168;19;20158;-80
2022/07/26 04:08:03;;;;;;;2.17;0.82;;;24.60;99.90;;;;;;7403970;19;20283;-80
2022/07/26 04:10:28;;;;;;;0.77;0.70;;;24.60;99.90;;;;;;7398243;19;20150;-79
2022/07/26 04:12:54;;;;;;;1.88;1.15;;;24.70;99.90;;;;;;7403538;19;20143;-80
2022/07/26 04:15:20;;;;;;;2.28;0.90;;;24.70;99.90;;;;;;7399932;19;20235;-79
2022/07/26 04:17:49;;;;;;;1.92;1.02;;;24.70;99.90;;;;;;7401898;19;20596;-80
2022/07/26 04:20:16;;;;;;;0.77;0.77;;;24.70;99.90;;;;;;7395331;19;20130;-80
2022/07/26 04:22:42;;;;;;;1.73;1.20;;;24.70;99.90;;;;;;7398089;19;20162;-80
2022/07/26 04:25:08;;;;;;;0.98;0.90;;;24.60;99.90;;;;;;7401984;19;20213;-80
2022/07/26 04:27:35;;;;;;;1.02;0.80;;;24.60;99.90;;;;;;7397930;19;20640;-81
2022/07/26 04:30:01;;;;;;;3.83;0.70;;;24.50;99.90;;;;;;7400510;19;20576;-80
2022/07/26 04:32:27;;;;;;;1.08;0.80;;;24.50;99.90;;;;;;7397185;19;20168;-80
2022/07/26 04:34:52;;;;;;;2.03;1.20;;;24.50;99.90;;;;;;7397799;19;20861;-80
2022/07/26 04:37:18;;;;;;;1.63;0.95;;;24.40;99.90;;;;;;7399447;19;20142;-80
2022/07/26 04:39:44;;;;;;;1.25;1.02;;;24.40;99.90;;;;;;7396876;19;20139;-81
2022/07/26 04:42:10;;;;;;;2.08;0.93;;;24.50;99.90;;;;;;7403855;19;20622;-81
2022/07/26 04:44:37;;;;;;;3.92;1.00;;;24.30;99.90;;;;;;7398104;19;20142;-81
2022/07/26 04:47:03;;;;;;;1.48;0.90;;;24.30;99.90;;;;;;7393706;19;20165;-80
2022/07/26 04:49:28;;;;;;;1.65;0.93;;;24.10;99.90;;;;;;7390520;19;20146;-80
2022/07/26 04:51:54;;;;;;;1.98;0.98;;;24.20;99.90;;;;;;7393929;19;20158;-80
2022/07/26 04:54:21;;;;;;;1.10;0.68;;;24.30;99.90;;;;;;7392924;19;20130;-80
2022/07/26 04:56:48;;;;;;;0.80;0.80;;;24.30;99.90;;;;;;7392573;19;20638;-80
2022/07/26 04:59:16;;;;;;;1.02;0.93;;;24.40;99.90;;;;;;7392257;19;20162;-80
2022/07/26 05:01:42;;;;;;;3.03;1.00;;;24.30;99.90;;;;;;7386335;19;20636;-80
2022/07/26 05:04:08;;;;;;;1.45;1.25;;;24.30;99.90;;;;;;7396667;19;20180;-80
2022/07/26 05:06:34;;;;;;;1.67;1.00;;;24.40;99.90;;;;;;7395726;19;20489;-81
2022/07/26 05:09:00;;;;;;;1.40;1.10;;;24.40;99.90;;;;;;7394156;19;20154;-80
2022/07/26 05:11:26;;;;;;;2.15;1.10;;;24.20;99.90;;;;;;7394258;19;20564;-80
2022/07/26 05:13:51;;;;;;;1.48;1.20;;;24.20;99.90;;;;;;7399541;19;20504;-80
2022/07/26 05:16:17;;;;;;;2.00;1.10;;;24.30;99.90;;;;;;7393708;19;20493;-81
2022/07/26 05:18:43;;;;;;;1.80;1.20;;;24.10;99.90;;;;;;7392536;19;20131;-81
2022/07/26 05:21:09;;;;;;;1.20;1.10;;;24.20;99.90;;;;;;7392656;19;20192;-80
2022/07/26 05:23:35;;;;;;;2.80;1.48;;;24.20;99.90;;;;;;7391531;19;20502;-80
2022/07/26 05:26:00;;;;;;;1.13;0.88;;;24.20;99.90;;;;;;7393734;19;20171;-80
2022/07/26 05:28:26;;;;;;;1.33;1.00;;;24.10;99.90;;;;;;7392239;19;20162;-80
2022/07/26 05:30:52;;;;;;;1.85;1.25;;;24.10;99.90;;;;;;7392634;19;20541;-80
2022/07/26 05:33:18;;;;;;;2.42;1.40;;;24.10;99.90;;;;;;7390187;19;20628;-77
2022/07/26 05:35:44;;;;;;;1.95;1.23;;;24.20;99.90;;;;;;7393811;19;20216;-77
2022/07/26 05:38:09;;;;;;;1.67;0.95;;;24.40;99.90;;;;;;7391096;19;20406;-78
2022/07/26 05:40:35;;;;;;;2.08;1.35;;;24.40;99.90;;;;;;7390855;19;20130;-77
2022/07/26 05:43:02;;;;;;;2.30;1.17;;;24.50;99.90;;;;;;7389554;19;20142;-76
2022/07/26 05:45:28;;;;;;;1.92;1.20;;;24.30;99.90;;;;;;7390770;19;20150;-78
2022/07/26 05:47:54;;;;;;;4.30;1.40;;;24.20;99.90;;;;;;7390441;19;20623;-76
2022/07/26 05:50:20;;;;;;;1.67;1.35;;;24.00;99.90;;;;;;7388279;19;20161;-76
2022/07/26 05:52:46;;;;;;;3.10;1.30;;;24.10;99.90;;;;;;7389405;19;20157;-78
2022/07/26 05:55:12;;;;;;;3.85;1.33;;;24.10;99.90;;;;;;7387056;19;20246;-79
2022/07/26 05:57:41;;;;;;;4.32;1.63;;;24.10;99.90;;;;;;7391832;19;20141;-77
2022/07/26 06:00:08;;;;;;;3.22;1.23;;;24.20;99.90;;;;;;7389883;19;20158;-77
2022/07/26 06:02:34;;;;;;;1.92;1.20;;;24.20;99.90;;;;;;7390783;19;20596;-78
2022/07/26 06:05:00;;;;;;;4.72;1.40;;;23.90;99.90;;;;;;7390899;19;20228;-77
2022/07/26 06:07:26;;;;;;;2.95;1.40;;;24.00;99.90;;;;;;7394591;19;20130;-79
2022/07/26 06:09:51;;;;;;;1.40;1.10;;;24.10;99.90;;;;;;7391129;19;20146;-79
2022/07/26 06:12:17;;;;;;;2.53;1.40;;;24.20;99.90;;;;;;7387544;19;20151;-78
2022/07/26 06:14:43;;;;;;;2.92;1.58;;;24.00;99.90;;;;;;7389334;19;20166;-79
2022/07/26 06:17:09;;;;;;;1.88;1.20;;;24.00;99.90;;;;;;7386735;19;20150;-80
2022/07/26 06:19:35;;;;;;;3.03;1.67;;;24.20;99.90;;;;;;7390954;19;20509;-79
2022/07/26 06:22:02;;;;;;;1.98;1.55;;;24.20;99.90;;;;;;7383816;19;20178;-75
2022/07/26 06:24:29;;;;;;;2.35;1.02;;;24.30;99.90;;;;;;7392367;19;20226;-76
2022/07/26 06:26:56;;;;;;;1.90;1.20;;;24.40;99.90;;;;;;7385471;19;20158;-76
2022/07/26 06:29:22;;;;;;;2.25;1.10;;;24.70;99.90;;;;;;7390008;19;20607;-76
2022/07/26 06:31:48;;;;;;;1.70;1.20;;;25.40;99.90;;;;;;7386049;19;20719;-76
2022/07/26 06:34:14;;;;;;;2.45;1.10;;;26.00;99.90;;;;;;7391038;19;20240;-76
2022/07/26 06:36:41;;;;;;;1.20;0.90;;;26.70;99.90;;;;;;7387127;19;20123;-76
2022/07/26 06:39:07;;;;;;;2.15;1.15;;;26.70;99.90;;;;;;7390555;19;20149;-76
2022/07/26 06:41:32;;;;;;;3.47;1.20;;;27.20;99.10;;;;;;7391660;19;20139;-77
2022/07/26 06:43:59;;;;;;;1.95;1.00;;;27.40;98.50;;;;;;7386622;19;20170;-76
2022/07/26 06:46:25;;;;;;;2.47;1.00;;;28.00;97.20;;;;;;7388564;19;20150;-75
2022/07/26 06:48:51;;;;;;;3.40;1.10;;;28.20;95.90;;;;;;7386851;19;20146;-76
2022/07/26 06:51:17;;;;;;;2.00;1.00;;;28.50;95.80;;;;;;7387447;19;20206;-76
2022/07/26 06:53:44;;;;;;;1.05;0.80;;;28.70;94.50;;;;;;7385639;19;20177;-75
2022/07/26 06:56:12;;;;;;;1.85;0.80;;;28.30;94.60;;;;;;7387423;19;20146;-75
2022/07/26 06:58:37;;;;;;;1.88;0.90;;;27.90;93.60;;;;;;7390305;19;20134;-75
2022/07/26 07:01:03;;;;;;;3.83;1.92;;;27.90;94.10;;;;;;7383545;19;20177;-74
2022/07/26 07:03:30;;;;;;;2.72;1.10;;;27.90;94.10;;;;;;7384341;19;20162;-75
2022/07/26 07:05:56;;;;;;;1.88;1.05;;;28.70;92.20;;;;;;7389831;19;20153;-75
2022/07/26 07:08:23;;;;;;;2.38;1.30;;;29.30;91.40;;;;;;7385508;19;20146;-76
2022/07/26 07:10:50;;;;;;;3.75;1.70;;;29.70;90.70;;;;;;7386909;19;20142;-75
2022/07/26 07:13:16;;;;;;;1.30;1.10;;;29.80;90.30;;;;;;7383942;19;20146;-75
2022/07/26 07:15:42;;;;;;;1.33;0.60;;;30.30;88.90;;;;;;7385548;19;20150;-76
2022/07/26 07:18:08;;;;;;;6.72;2.20;;;30.10;87.70;;;;;;7384693;19;20537;-76
2022/07/26 07:20:34;;;;;;;2.35;1.42;;;30.10;88.00;;;;;;7385003;19;20986;-75
2022/07/26 07:22:59;;;;;;;1.88;0.95;;;30.10;87.80;;;;;;7388577;19;20146;-76
2022/07/26 07:25:25;;;;;;;2.45;1.02;;;30.20;85.90;;;;;;7382109;19;20515;-76
2022/07/26 07:27:51;;;;;;;2.80;1.00;;;30.30;85.60;;;;;;7389828;19;20479;-76
2022/07/26 07:30:17;;;;;;;1.40;0.57;;;30.40;85.40;;;;;;7383480;19;20151;-76
2022/07/26 07:32:43;;;;;;;1.55;0.90;;;30.70;84.30;;;;;;7387285;19;20154;-76
2022/07/26 07:35:09;;;;;;;2.28;1.00;;;30.60;84.90;;;;;;7385679;19;20142;-75
2022/07/26 07:37:35;;;;;;;1.52;0.63;;;30.80;84.20;;;;;;7381130;19;20165;-75
2022/07/26 07:40:08;;;;;;;2.90;0.93;;;31.00;81.10;;;;;;7386078;19;20210;-76
2022/07/26 07:42:35;;;;;;;2.90;0.82;;;31.10;79.90;;;;;;7385513;19;20134;-75
2022/07/26 07:45:01;;;;;;;1.52;0.70;;;31.10;80.80;;;;;;7383743;19;20162;-75
2022/07/26 07:47:27;;;;;;;1.10;0.63;;;30.80;79.90;;;;;;7385394;19;20150;-75
2022/07/26 07:49:53;;;;;;;0.80;0.70;;;30.60;80.80;;;;;;7384500;19;20155;-76
2022/07/26 07:52:19;;;;;;;1.05;0.75;;;30.20;81.30;;;;;;7384404;19;20604;-74
2022/07/26 07:54:45;;;;;;;5.78;3.50;;;29.70;82.30;;;;;;7386843;19;20147;-77
2022/07/26 07:57:11;;;;;;;4.45;2.13;;;29.60;83.10;;;;;;7389463;19;20148;-75
2022/07/26 07:59:37;;;;;;;3.83;1.48;;;29.90;82.70;;;;;;7382923;19;20142;-75
2022/07/26 08:02:02;;;;;;;2.28;1.17;;;30.40;81.50;;;;;;7387863;19;20149;-75
2022/07/26 08:04:28;;;;;;;2.97;0.80;;;30.80;80.70;;;;;;7383047;19;20171;-76
2022/07/26 08:06:54;;;;;;;1.70;0.93;;;31.10;78.30;;;;;;7389409;19;20149;-75
2022/07/26 08:09:20;;;;;;;1.10;0.80;;;31.40;76.80;;;;;;7388439;19;20134;-74
2022/07/26 08:11:46;;;;;;;2.47;1.27;;;31.60;76.20;;;;;;7380672;19;20170;-76
2022/07/26 08:14:12;;;;;;;2.38;0.88;;;31.60;76.20;;;;;;7384317;19;20151;-75
2022/07/26 08:16:39;;;;;;;2.83;1.45;;;31.70;76.50;;;;;;7384908;19;20150;-73
2022/07/26 08:19:04;;;;;;;2.78;1.42;;;31.70;76.40;;;;;;7385683;19;20185;-74
2022/07/26 08:21:31;;;;;;;2.05;0.98;;;32.20;74.90;;;;;;7381104;19;20147;-74
2022/07/26 08:23:57;;;;;;;2.50;1.20;;;31.90;74.40;;;;;;7403070;19;20202;-74
2022/07/26 08:26:23;;;;;;;1.70;0.88;;;30.70;76.60;;;;;;7390483;19;20668;-74
2022/07/26 08:28:49;;;;;;;2.92;1.10;;;30.20;77.10;;;;;;7389551;19;20142;-75
2022/07/26 08:31:17;;;;;;;3.92;0.90;;;30.40;77.50;;;;;;7389079;19;20241;-76
2022/07/26 08:33:42;;;;;;;3.55;0.80;;;30.20;77.20;;;;;;7391112;19;20127;-75
2022/07/26 08:36:08;;;;;;;1.50;0.70;;;30.30;77.90;;;;;;7392510;19;20157;-75
2022/07/26 08:38:34;;;;;;;4.97;1.00;;;30.20;77.40;;;;;;7391023;19;20604;-75
2022/07/26 08:41:00;;;;;;;2.45;0.70;;;30.30;77.10;;;;;;7390215;19;20135;-75
2022/07/26 08:43:26;;;;;;;1.70;0.63;;;30.30;76.80;;;;;;7394746;19;20174;-74
2022/07/26 08:45:58;;;;;;;2.13;0.98;;;30.30;76.50;;;;;;7392490;19;20155;-75
2022/07/26 08:48:24;;;;;;;1.55;0.80;;;30.00;77.00;;;;;;7394072;19;20167;-75
2022/07/26 08:50:50;;;;;;;2.15;1.20;;;29.50;76.70;;;;;;7387360;19;20166;-74
2022/07/26 08:53:16;;;;;;;1.05;0.70;;;29.40;77.00;;;;;;7391073;19;20139;-75
2022/07/26 08:55:45;;;;;;;2.13;0.90;;;29.30;77.90;;;;;;7390720;19;20155;-75
2022/07/26 08:58:13;;;;;;;2.05;0.90;;;29.50;77.80;;;;;;7393175;19;20463;-75
2022/07/26 09:00:42;;;;;;;2.13;0.88;;;29.50;77.20;;;;;;7389440;19;20135;-74
2022/07/26 09:03:24;;;;;;;1.45;0.75;;;29.40;76.90;;;;;;7389255;19;20143;-74
2022/07/26 09:05:52;;;;;;;3.25;1.60;;;29.10;77.60;;;;;;7393649;19;20143;-75
2022/07/26 09:08:28;;;;;;;1.48;0.63;;;29.20;77.50;;;;;;7389907;19;20138;-75
2022/07/26 09:10:55;;;;;;;0.43;0.43;;;28.80;77.50;;;;;;7394084;19;20139;-75
2022/07/26 09:13:24;;;;;;;2.10;0.55;;;28.30;78.00;;;;;;7391346;19;20146;-74
2022/07/26 09:16:17;;;;;;;2.00;0.68;;;27.80;79.30;;;;;;7387361;19;20186;-73
2022/07/26 09:18:43;;;;;;;2.47;0.80;;;27.70;80.20;;;;;;7389285;19;20605;-74
2022/07/26 09:21:26;;;;;;;2.30;1.35;;;27.90;80.40;;;;;;7388274;19;20198;-74
2022/07/26 09:23:56;;;;;;;3.38;1.42;;;27.80;80.10;;;;;;7388038;19;20150;-75
2022/07/26 09:26:22;;;;;;;2.60;1.90;;;27.90;79.50;;;;;;7392135;19;20151;-74
2022/07/26 09:29:23;;;;;;;1.30;0.77;;;28.00;80.00;;;;;;7387457;19;20154;-74
2022/07/26 09:31:49;;;;;;;2.80;0.80;;;27.80;80.60;;;;;;7385457;19;20155;-75
2022/07/26 09:34:26;;;;;;;2.00;1.50;;;27.90;79.40;;;;;;7391108;19;20490;-75
2022/07/26 09:36:53;;;;;;;1.05;0.70;;;28.00;79.70;;;;;;7388161;19;20142;-74
2022/07/26 09:39:19;;;;;;;1.70;0.70;;;27.60;80.80;;;;;;7390451;19;20165;-74
2022/07/26 09:41:45;;;;;;;1.15;0.85;;;27.20;81.90;;;;;;7387948;19;20142;-74
2022/07/26 09:44:23;;;;;;;1.27;0.73;;;27.00;82.80;;;;;;7394462;19;20194;-75
2022/07/26 09:46:55;;;;;;;1.23;0.65;;;27.10;82.30;;;;;;7389696;19;20191;-75
2022/07/26 09:49:22;;;;;;;2.35;0.70;;;27.20;82.50;;;;;;7389233;19;20143;-74
2022/07/26 09:51:51;;;;;;;1.20;0.60;;;27.40;81.50;;;;;;7386217;19;20143;-73
2022/07/26 09:54:29;;;;;;;1.30;0.93;;;27.40;81.70;;;;;;7390232;19;20139;-74
2022/07/26 09:56:55;;;;;;;0.88;0.77;;;27.20;81.90;;;;;;7385185;19;20526;-73
2022/07/26 09:59:23;;;;;;;0.98;0.60;;;27.00;82.40;;;;;;7388518;19;20139;-74
2022/07/26 10:01:51;;;;;;;3.50;1.27;;;26.80;83.50;;;;;;7390005;19;20146;-74
2022/07/26 10:04:20;;;;;;;1.20;0.80;;;26.90;83.20;;;;;;7388483;19;20139;-74
2022/07/26 10:06:46;;;;;;;0.80;0.70;;;27.00;83.20;;;;;;7387617;19;20159;-74
2022/07/26 10:09:13;;;;;;;1.38;0.70;;;27.10;83.00;;;;;;7389660;19;20243;-74
2022/07/26 10:11:44;;;;;;;2.35;1.02;;;26.90;82.90;;;;;;7383429;19;20138;-74
2022/07/26 10:14:33;;;;;;;0.50;0.50;;;26.70;84.20;;;;;;7390504;19;20147;-75
2022/07/26 10:17:28;;;;;;;3.65;0.65;;;27.00;83.30;;;;;;7385193;19;20234;-74
2022/07/26 10:19:54;;;;;;;2.22;1.10;;;27.10;83.60;;;;;;7385728;19;20183;-74
2022/07/26 10:22:30;;;;;;;3.63;1.70;;;27.20;83.20;;;;;;7384767;19;20185;-74
2022/07/26 10:25:16;;;;;;;4.47;1.10;;;27.40;83.60;;;;;;7388098;19;20138;-74
2022/07/26 10:27:54;;;;;;;6.80;0.93;;;27.80;83.20;;;;;;7388804;19;20154;-73
2022/07/26 10:30:25;;;;;;;1.30;0.80;;;27.90;81.70;;;;;;7384226;19;20157;-74
2022/07/26 10:32:58;;;;;;;2.22;0.70;;;27.60;82.90;;;;;;7384752;19;20159;-74
2022/07/26 10:35:33;;;;;;;1.88;0.88;;;27.50;84.00;;;;;;7387071;19;20134;-76
2022/07/26 10:38:07;;;;;;;1.30;1.20;;;27.60;83.60;;;;;;7388290;19;20171;-75
2022/07/26 10:40:34;;;;;;;2.65;1.38;;;27.60;83.60;;;;;;7391840;19;20656;-73
2022/07/26 10:43:12;;;;;;;3.20;1.50;;;27.80;83.70;;;;;;7390682;19;20138;-73
2022/07/26 10:45:41;;;;;;;0.90;0.60;;;27.80;82.90;;;;;;7384712;19;20166;-75
2022/07/26 10:48:17;;;;;;;1.05;0.80;;;27.90;82.60;;;;;;7390016;19;20162;-74
2022/07/26 10:50:48;;;;;;;1.15;0.70;;;28.00;81.70;;;;;;7384704;19;20183;-75
2022/07/26 10:53:22;;;;;;;0.88;0.60;;;27.70;82.00;;;;;;7384613;19;20146;-74
2022/07/26 10:55:56;;;;;;;0.93;0.73;;;27.60;82.60;;;;;;7388750;19;20205;-73
2022/07/26 10:58:24;;;;;;;1.40;0.70;;;27.20;82.70;;;;;;7384817;19;20149;-74
2022/07/26 11:00:55;;;;;;;3.55;1.00;;;27.10;83.50;;;;;;7388387;19;20138;-74
2022/07/26 11:03:40;;;;;;;2.13;0.65;;;27.30;82.50;;;;;;7384238;19;20474;-75
2022/07/26 11:06:11;;;;;;;1.05;0.70;;;27.60;82.70;;;;;;7392895;19;20210;-74
2022/07/26 11:08:37;;;;;;;3.17;0.55;;;27.50;81.60;;;;;;7388120;19;20153;-74
2022/07/26 11:11:03;;;;;;;3.35;0.70;;;27.40;81.90;;;;;;7386475;19;20151;-75
2022/07/26 11:13:31;;;;;;;1.92;0.70;;;27.40;82.20;;;;;;7385697;19;20149;-73
2022/07/26 11:16:05;;;;;;;1.10;0.70;;;27.30;82.00;;;;;;7388739;19;20135;-74
2022/07/26 11:18:36;;;;;;;2.60;1.02;;;27.20;83.40;;;;;;7385567;19;20153;-75
2022/07/26 11:21:13;;;;;;;1.23;1.13;;;27.00;82.00;;;;;;7384581;19;20235;-74
2022/07/26 11:23:44;;;;;;;2.20;1.10;;;27.00;82.50;;;;;;7387939;19;20636;-75
2022/07/26 11:26:22;;;;;;;1.98;1.00;;;27.00;82.40;;;;;;7391422;19;20177;-73
2022/07/26 11:29:01;;;;;;;1.65;0.80;;;27.10;82.20;;;;;;7384917;19;20217;-75
2022/07/26 11:31:47;;;;;;;3.10;1.05;;;27.10;81.70;;;;;;7387353;19;20138;-74
2022/07/26 11:34:18;;;;;;;1.08;0.60;;;27.20;81.80;;;;;;7383672;19;20138;-73
2022/07/26 11:36:46;;;;;;;0.73;0.65;;;27.20;81.10;;;;;;7388262;19;20138;-74
2022/07/26 11:39:21;;;;;;;1.40;0.70;;;26.80;81.20;;;;;;7387846;19;20157;-75
2022/07/26 11:41:46;;;;;;;2.13;0.70;;;26.60;82.30;;;;;;7385588;19;20141;-73
2022/07/26 11:44:18;;;;;;;0.95;0.70;;;26.70;81.90;;;;;;7385643;19;20163;-75
2022/07/26 11:46:47;;;;;;;1.50;1.40;;;26.80;81.80;;;;;;7384692;19;20131;-74
2022/07/26 11:49:32;;;;;;;2.90;1.33;;;27.10;81.80;;;;;;7384138;19;20150;-73
2022/07/26 11:52:02;;;;;;;1.35;0.68;;;27.50;80.20;;;;;;7385272;19;20134;-74
2022/07/26 11:54:43;;;;;;;2.22;0.82;;;27.80;78.50;;;;;;7385830;19;20147;-75
2022/07/26 11:57:09;;;;;;;0.68;0.50;;;27.90;78.30;;;;;;7394979;19;20147;-74
2022/07/26 11:59:36;;;;;;;1.77;0.68;;;27.70;78.30;;;;;;7392005;19;20557;-74
2022/07/26 12:02:04;;;;;;;1.58;0.93;;;27.60;78.10;;;;;;7397962;19;20134;-74
2022/07/26 12:04:33;;;;;;;1.95;0.80;;;27.60;78.10;;;;;;7392007;19;20126;-75
2022/07/26 12:07:00;;;;;;;0.80;0.60;;;27.60;78.80;;;;;;7395875;19;20143;-74
2022/07/26 12:09:37;;;;;;;1.92;1.40;;;27.70;78.10;;;;;;7394970;19;20134;-74
2022/07/26 12:12:09;;;;;;;1.20;0.90;;;27.60;78.70;;;;;;7392934;19;20561;-75
2022/07/26 12:14:37;;;;;;;1.42;0.57;;;27.70;78.20;;;;;;7392135;19;20549;-75
2022/07/26 12:17:16;;;;;;;1.20;0.75;;;27.60;77.70;;;;;;7396038;19;20169;-74
2022/07/26 12:19:44;;;;;;;0.57;0.52;;;27.60;77.40;;;;;;7389403;19;20149;-75
2022/07/26 12:22:15;;;;;;;4.28;0.85;;;27.20;77.30;;;;;;7392115;19;20177;-74
2022/07/26 12:24:45;;;;;;;0.65;0.52;;;27.10;78.70;;;;;;7392868;19;20154;-74
2022/07/26 12:27:15;;;;;;;1.13;0.70;;;27.20;78.40;;;;;;7389234;19;20628;-74
2022/07/26 12:29:43;;;;;;;0.95;0.55;;;27.40;78.00;;;;;;7393396;19;20191;-76
2022/07/26 12:32:12;;;;;;;2.47;0.75;;;27.20;77.60;;;;;;7387554;19;20146;-76
2022/07/26 12:34:40;;;;;;;2.45;0.70;;;27.10;78.10;;;;;;7391421;19;20146;-74
2022/07/26 12:37:10;;;;;;;1.15;0.70;;;27.10;77.40;;;;;;7390605;19;20130;-75
2022/07/26 12:39:36;;;;;;;0.50;0.50;;;27.10;77.30;;;;;;7395603;19;20130;-73
2022/07/26 12:42:26;;;;;;;1.08;0.55;;;27.00;77.40;;;;;;7390410;19;20157;-74
2022/07/26 12:44:52;;;;;;;0.43;0.43;;;27.10;76.70;;;;;;7391801;19;20559;-74
2022/07/26 12:47:19;;;;;;;1.55;0.52;;;27.20;77.00;;;;;;7389438;19;20143;-74
2022/07/26 12:49:45;;;;;;;0.47;0.47;;;27.20;76.40;;;;;;7392852;19;20143;-75
2022/07/26 12:52:13;;;;;;;0.95;0.70;;;27.20;76.20;;;;;;7389618;19;20139;-75
2022/07/26 12:54:39;;;;;;;2.50;0.73;;;27.30;75.50;;;;;;7389818;19;20227;-76
2022/07/26 12:57:05;;;;;;;0.82;0.32;;;27.30;74.70;;;;;;7390543;19;20722;-74